Fairchild Air Force Base, WA (99011)

12:31 PM PDT on July 30, 2015 (GMT -0700)
In town | | Change Station
CLOSE
Current Station
Personal Weather Station
Location: Medical Lake, WA
Elevation: 2421 ft
Nearby Weather Stations

Elev 2421 ft 47.58 °N, 117.69 °W | Updated 17 seconds ago

Clear
Clear
96.3 °F
Feels Like 92 °F
N
9.4
Wind Variable Wind from WNW
Gusts 9.4 mph

Today
High -- | Low -- °F
--% Chance of Precip.
Yesterday
High -- | Low -- °F
Precip. -- in
5:25 AM 8:27 PM
Waxing Gibbous, 99% visible
Pressure 30.19 in
Visibility 10.0 miles
Clouds Clear
Heat Index 92 °F
Dew Point 39 °F
Humidity 14%
Rainfall 0.00 in
Snow Depth Not available.
UV 10 out of 12
Pollen 6.10 out of 12
Air Quality Not available.
Flu Activity Not available.
SPECI KSKA 301924Z AUTO 24011G15KT 190V260 10SM CLR 32/00 A3019 RMK AO2 WSHFT 23 RAB1858E08DZB08E17RAB17

More Conditions Fewer Conditions

Pressure 30.19 in
Visibility 10.0 miles
Clouds Clear
Heat Index 92 °F
Dew Point 39 °F
Humidity 14%
Rainfall 0.00 in
Snow Depth Not available.
UV 10 out of 12
Pollen 6.10 out of 12
Air Quality Not available.
Flu Activity Not available.
SPECI KSKA 301924Z AUTO 24011G15KT 190V260 10SM CLR 32/00 A3019 RMK AO2 WSHFT 23 RAB1858E08DZB08E17RAB17

More Conditions Fewer Conditions

10-Day Weather Forecast

×

Almanac

Astronomy

Jul. 30, 2015 Rise Set
Actual Time
Civil Twilight
Nautical Twilight
Astronomical Twilight
Moon
Length of Visible Light
Length of Day
Tomorrow will be .
, % of the Moon is Illuminated

Today's Extremes

State Highs State Lows

Community

WunderPhotos

Upload Photos

1,842,486 photos uploaded!

WunderBlogs® & News

Nearby

Air Quality

  Air Quality AQ Index Pollutant
Not available.

Snow Depth

Station Depth Elevation

Earthquake Activity

City Distance Mag. Time & Date
Minimum magnitude displayed is 2.5.

Coastal Water Temperatures

Place Temperature

Stations

Nearby Weather Stations

Station Location Temp. Windchill Dew Point Humidity Wind Precip. Elev Updated Type